createdAt,value
2018-02-02T00:00:02.605Z,76.76
2018-02-02T00:02:30.874Z,77.02
2018-02-02T00:05:06.158Z,76.88
2018-02-02T00:07:34.448Z,76.94
2018-02-02T00:10:03.066Z,77.10
2018-02-02T00:12:31.308Z,76.93
2018-02-02T00:15:02.723Z,77.03
2018-02-02T00:17:30.995Z,76.97
2018-02-02T00:20:06.101Z,77.06
2018-02-02T00:22:34.396Z,76.98
2018-02-02T00:25:02.673Z,77.02
2018-02-02T00:27:30.945Z,77.15
2018-02-02T00:30:05.977Z,77.21
2018-02-02T00:32:34.298Z,77.07
2018-02-02T00:35:02.585Z,77.02
2018-02-02T00:37:30.853Z,76.90
2018-02-02T00:40:04.868Z,76.68
2018-02-02T00:42:33.255Z,76.77
2018-02-02T00:45:03.187Z,76.60
2018-02-02T00:47:31.700Z,76.62
2018-02-02T00:50:03.670Z,76.43
2018-02-02T00:52:31.916Z,76.35
2018-02-02T00:55:02.809Z,75.96
2018-02-02T00:57:31.316Z,75.65
2018-02-02T01:00:03.639Z,75.70
2018-02-02T01:02:31.856Z,75.51
2018-02-02T01:05:03.305Z,75.44
2018-02-02T01:07:31.563Z,75.41
2018-02-02T01:10:04.090Z,75.26
2018-02-02T01:12:32.344Z,75.32
2018-02-02T01:15:04.254Z,75.16
2018-02-02T01:17:34.327Z,74.80
2018-02-02T01:20:04.607Z,75.15
2018-02-02T01:22:38.775Z,75.19
2018-02-02T01:25:08.883Z,75.56
2018-02-02T01:27:39.121Z,75.49
2018-02-02T01:30:08.947Z,75.70
2018-02-02T01:32:42.251Z,75.88
2018-02-02T01:35:13.346Z,75.97
2018-02-02T01:37:41.648Z,76.01
2018-02-02T01:40:10.630Z,76.07
2018-02-02T01:42:39.320Z,75.65
2018-02-02T01:45:07.586Z,75.74
2018-02-02T01:47:36.357Z,75.73
2018-02-02T01:50:04.593Z,75.55
2018-02-02T01:52:32.988Z,75.39
2018-02-02T01:55:02.709Z,75.51
2018-02-02T01:57:30.994Z,75.41
2018-02-02T02:00:02.932Z,75.47
2018-02-02T02:02:31.229Z,75.50
2018-02-02T02:05:02.714Z,75.48
2018-02-02T02:07:31.325Z,75.22
2018-02-02T02:10:02.741Z,74.96
2018-02-02T02:12:31.934Z,74.34
2018-02-02T02:15:03.981Z,74.73
2018-02-02T02:17:37.942Z,74.94
2018-02-02T02:20:08.644Z,75.08
2018-02-02T02:22:37.353Z,75.16
2018-02-02T02:25:06.145Z,75.21
2018-02-02T02:27:35.830Z,75.06
2018-02-02T02:30:05.755Z,75.19
2018-02-02T02:32:35.299Z,75.21
2018-02-02T02:35:05.304Z,75.22
2018-02-02T02:37:33.591Z,75.10
2018-02-02T02:40:03.620Z,74.98
2018-02-02T02:42:31.945Z,74.81
2018-02-02T02:45:03.841Z,74.93
2018-02-02T02:47:32.125Z,74.87
2018-02-02T02:50:03.836Z,74.79
2018-02-02T02:52:32.261Z,74.74
2018-02-02T02:55:04.382Z,74.63
2018-02-02T02:57:32.680Z,75.00
2018-02-02T03:00:04.598Z,74.78
2018-02-02T03:02:32.866Z,74.53
2018-02-02T03:05:02.758Z,74.56
2018-02-02T03:07:31.034Z,74.59
2018-02-02T03:10:06.507Z,74.45
2018-02-02T03:12:34.780Z,74.56
2018-02-02T03:15:03.133Z,74.60
2018-02-02T03:17:33.723Z,74.64
2018-02-02T03:20:03.186Z,74.59
2018-02-02T03:22:31.590Z,74.39
2018-02-02T03:25:03.619Z,74.57
2018-02-02T03:27:35.880Z,74.52
2018-02-02T03:30:07.091Z,74.78
2018-02-02T03:32:36.983Z,74.61
2018-02-02T03:35:07.272Z,74.51
2018-02-02T03:37:37.380Z,74.69
2018-02-02T03:40:07.419Z,74.91
2018-02-02T03:42:37.679Z,74.97
2018-02-02T03:45:07.612Z,75.13
2018-02-02T03:47:37.571Z,75.72
2018-02-02T03:50:07.567Z,76.69
2018-02-02T03:52:37.435Z,77.89
2018-02-02T03:55:07.619Z,79.10
2018-02-02T03:57:37.655Z,79.77
2018-02-02T04:00:07.781Z,81.30
2018-02-02T04:02:38.102Z,81.48
2018-02-02T04:05:08.012Z,82.11
2018-02-02T04:07:38.008Z,83.51
2018-02-02T04:10:08.101Z,83.81
2018-02-02T04:12:38.033Z,83.67
2018-02-02T04:15:12.217Z,83.47
2018-02-02T04:17:42.379Z,84.29
2018-02-02T04:20:12.902Z,84.21
2018-02-02T04:22:42.406Z,83.79
2018-02-02T04:25:12.175Z,83.86
2018-02-02T04:27:45.456Z,83.65
2018-02-02T04:30:13.908Z,83.94
2018-02-02T04:32:42.191Z,84.73
2018-02-02T04:35:13.465Z,85.17
2018-02-02T04:37:42.017Z,85.19
2018-02-02T04:40:10.340Z,84.70
2018-02-02T04:42:38.557Z,84.80
2018-02-02T04:45:07.384Z,84.69
2018-02-02T04:47:35.673Z,85.20
2018-02-02T04:50:03.965Z,84.74
2018-02-02T04:52:32.277Z,84.92
2018-02-02T04:55:04.540Z,84.86
2018-02-02T04:57:32.820Z,84.98
2018-02-02T05:00:04.994Z,84.62
2018-02-02T05:02:33.281Z,84.82
2018-02-02T05:05:04.507Z,85.02
2018-02-02T05:07:32.809Z,85.00
2018-02-02T05:10:04.120Z,84.65
2018-02-02T05:12:32.418Z,84.76
2018-02-02T05:15:03.709Z,84.79
2018-02-02T05:17:32.641Z,84.81
2018-02-02T05:20:04.188Z,84.62
2018-02-02T05:22:32.460Z,84.20
2018-02-02T05:25:03.783Z,83.76
2018-02-02T05:27:32.320Z,83.47
2018-02-02T05:30:04.679Z,83.30
2018-02-02T05:32:33.285Z,82.99
2018-02-02T05:35:04.620Z,82.50
2018-02-02T05:37:33.284Z,82.67
2018-02-02T05:40:03.104Z,81.92
2018-02-02T05:42:31.505Z,81.79
2018-02-02T05:45:03.432Z,81.76
2018-02-02T05:47:31.716Z,81.74
2018-02-02T05:50:05.654Z,81.55
2018-02-02T05:52:34.422Z,81.05
2018-02-02T05:55:03.327Z,81.43
2018-02-02T05:57:31.580Z,81.62
2018-02-02T06:00:05.520Z,81.62
2018-02-02T06:02:33.857Z,80.97
2018-02-02T06:05:03.296Z,80.99
2018-02-02T06:07:31.556Z,80.75
2018-02-02T06:10:03.501Z,80.30
2018-02-02T06:12:31.894Z,80.07
2018-02-02T06:15:03.821Z,79.89
2018-02-02T06:17:32.465Z,80.00
2018-02-02T06:20:04.114Z,79.87
2018-02-02T06:22:32.390Z,79.68
2018-02-02T06:25:02.987Z,79.65
2018-02-02T06:27:31.264Z,79.16
2018-02-02T06:30:06.417Z,79.37
2018-02-02T06:32:34.702Z,79.37
2018-02-02T06:35:03.000Z,79.49
2018-02-02T06:37:31.264Z,79.75
2018-02-02T06:40:03.328Z,79.67
2018-02-02T06:42:31.937Z,79.95
2018-02-02T06:45:04.323Z,79.57
2018-02-02T06:47:32.598Z,79.73
2018-02-02T06:50:04.712Z,79.50
2018-02-02T06:52:33.201Z,79.19
2018-02-02T06:55:03.149Z,79.21
2018-02-02T06:57:31.416Z,79.75
2018-02-02T07:00:03.044Z,79.68
2018-02-02T07:02:31.316Z,79.52
2018-02-02T07:05:02.722Z,79.22
2018-02-02T07:07:30.973Z,78.89
2018-02-02T07:10:02.470Z,79.48
2018-02-02T07:12:31.093Z,79.48
2018-02-02T07:15:02.667Z,78.97
2018-02-02T07:17:30.941Z,78.53
2018-02-02T07:20:03.061Z,78.55
2018-02-02T07:22:32.188Z,78.23
2018-02-02T07:25:05.299Z,79.08
2018-02-02T07:27:33.600Z,78.43
2018-02-02T07:30:02.680Z,78.60
2018-02-02T07:32:30.945Z,78.42
2018-02-02T07:35:02.426Z,78.87
2018-02-02T07:37:30.713Z,78.96
2018-02-02T07:40:04.764Z,79.04
2018-02-02T07:42:33.052Z,79.54
2018-02-02T07:45:02.641Z,79.40
2018-02-02T07:47:30.917Z,79.91
2018-02-02T07:50:03.031Z,79.99
2018-02-02T07:52:31.303Z,79.83
2018-02-02T07:55:03.186Z,79.84
2018-02-02T07:57:31.534Z,79.90
2018-02-02T08:00:03.654Z,79.83
2018-02-02T08:02:31.932Z,78.58
2018-02-02T08:05:03.180Z,78.06
2018-02-02T08:07:31.491Z,77.72
2018-02-02T08:10:02.150Z,77.50
2018-02-02T08:12:30.420Z,77.46
2018-02-02T08:15:01.841Z,77.36
2018-02-02T08:17:30.101Z,77.22
2018-02-02T08:20:05.183Z,77.64
2018-02-02T08:22:33.450Z,77.24
2018-02-02T08:25:02.937Z,78.08
2018-02-02T08:27:31.213Z,78.37
2018-02-02T08:30:03.336Z,78.38
2018-02-02T08:32:32.043Z,79.15
2018-02-02T08:35:03.581Z,78.95
2018-02-02T08:37:32.080Z,78.97
2018-02-02T08:40:04.045Z,79.65
2018-02-02T08:42:32.302Z,79.84
2018-02-02T08:45:05.341Z,79.78
2018-02-02T08:47:34.306Z,79.83
2018-02-02T08:50:02.580Z,79.86
2018-02-02T08:52:30.881Z,80.06
2018-02-02T08:55:02.424Z,79.60
2018-02-02T08:57:30.715Z,79.68
2018-02-02T09:00:05.747Z,79.57
2018-02-02T09:02:34.024Z,79.44
2018-02-02T09:05:03.063Z,79.31
2018-02-02T09:07:31.332Z,79.03
2018-02-02T09:10:02.283Z,80.04
2018-02-02T09:12:30.572Z,79.63
2018-02-02T09:15:05.893Z,80.69
2018-02-02T09:17:36.152Z,80.83
2018-02-02T09:20:04.424Z,80.35
2018-02-02T09:22:32.730Z,80.48
2018-02-02T09:25:04.117Z,80.32
2018-02-02T09:27:31.865Z,80.38
2018-02-02T09:30:03.406Z,80.38
2018-02-02T09:32:31.697Z,80.46
2018-02-02T09:35:03.870Z,80.33
2018-02-02T09:37:32.394Z,79.77
2018-02-02T09:40:02.890Z,79.95
2018-02-02T09:42:31.166Z,80.04
2018-02-02T09:45:02.398Z,80.11
2018-02-02T09:47:30.709Z,78.39
2018-02-02T09:50:02.215Z,77.71
2018-02-02T09:52:30.495Z,78.45
2018-02-02T09:55:02.146Z,79.41
2018-02-02T09:57:30.547Z,79.42
2018-02-02T10:00:03.986Z,80.56
2018-02-02T10:02:32.294Z,80.96
2018-02-02T10:05:02.641Z,80.48
2018-02-02T10:07:30.959Z,81.60
2018-02-02T10:10:04.872Z,80.81
2018-02-02T10:12:33.188Z,81.55
2018-02-02T10:15:02.452Z,80.76
2018-02-02T10:17:30.744Z,81.31
2018-02-02T10:20:05.907Z,82.40
2018-02-02T10:22:34.189Z,82.99
2018-02-02T10:25:02.661Z,82.71
2018-02-02T10:27:31.153Z,83.44
2018-02-02T10:30:02.700Z,83.00
2018-02-02T10:32:31.061Z,83.11
2018-02-02T10:35:03.099Z,83.51
2018-02-02T10:37:31.368Z,82.96
2018-02-02T10:40:03.525Z,82.99
2018-02-02T10:42:31.784Z,83.43
2018-02-02T10:45:03.938Z,83.56
2018-02-02T10:47:32.416Z,84.06
2018-02-02T10:50:05.447Z,83.83
2018-02-02T10:52:33.722Z,83.48
2018-02-02T10:55:02.851Z,83.17
2018-02-02T10:57:31.138Z,82.72
2018-02-02T11:00:03.272Z,82.94
2018-02-02T11:02:37.332Z,82.71
2018-02-02T11:05:05.617Z,82.90
2018-02-02T11:07:34.092Z,82.23
2018-02-02T11:10:02.401Z,83.19
2018-02-02T11:12:30.684Z,82.69
2018-02-02T11:15:02.272Z,82.42
2018-02-02T11:17:30.581Z,82.81
2018-02-02T11:20:02.270Z,83.11
2018-02-02T11:22:30.560Z,82.84
2018-02-02T11:25:03.920Z,83.54
2018-02-02T11:27:32.199Z,83.71
2018-02-02T11:30:03.410Z,84.38
2018-02-02T11:32:31.705Z,83.69
2018-02-02T11:35:03.064Z,83.53
2018-02-02T11:37:31.333Z,83.77
2018-02-02T11:40:03.488Z,83.36
2018-02-02T11:42:31.783Z,83.31
2018-02-02T11:45:02.320Z,82.39
2018-02-02T11:47:30.604Z,82.29
2018-02-02T11:50:04.556Z,82.19
2018-02-02T11:52:32.888Z,82.29
2018-02-02T11:55:02.765Z,82.64
2018-02-02T11:57:31.080Z,82.36
2018-02-02T12:00:02.435Z,81.72
2018-02-02T12:02:30.687Z,81.53
2018-02-02T12:05:05.792Z,81.13
2018-02-02T12:07:34.088Z,80.78
2018-02-02T12:10:02.662Z,81.20
2018-02-02T12:12:30.948Z,81.17
2018-02-02T12:15:05.968Z,81.02
2018-02-02T12:17:34.236Z,80.77
2018-02-02T12:20:05.488Z,80.16
2018-02-02T12:25:38.577Z,79.60
2018-02-02T12:31:28.601Z,78.15
2018-02-02T12:34:01.437Z,77.96
2018-02-02T12:36:31.682Z,77.71
2018-02-02T12:38:59.937Z,77.58
2018-02-02T12:41:28.248Z,78.41
2018-02-02T12:43:56.522Z,78.13
2018-02-02T12:46:25.031Z,77.27
2018-02-02T12:48:58.296Z,77.16
2018-02-02T12:51:26.583Z,77.59
2018-02-02T12:53:54.847Z,76.99
2018-02-02T12:56:23.121Z,77.64
2018-02-02T12:58:51.396Z,77.59
2018-02-02T13:01:19.704Z,77.51
2018-02-02T13:03:47.965Z,77.60
2018-02-02T13:06:17.724Z,77.52
2018-02-02T13:08:46.032Z,77.99
2018-02-02T13:11:14.320Z,77.85
2018-02-02T13:13:42.582Z,77.81
2018-02-02T13:16:11.082Z,77.95
2018-02-02T13:18:39.569Z,77.88
2018-02-02T13:21:07.853Z,77.34
2018-02-02T13:23:36.141Z,76.29
2018-02-02T13:26:04.420Z,75.96
2018-02-02T13:28:32.707Z,76.82
2018-02-02T13:31:00.961Z,77.08
2018-02-02T13:33:30.148Z,76.90
2018-02-02T13:35:58.419Z,76.08
2018-02-02T13:38:26.684Z,75.67
2018-02-02T13:40:54.978Z,76.67
2018-02-02T13:43:23.467Z,75.76
2018-02-02T13:45:51.913Z,75.64
2018-02-02T13:48:20.239Z,76.50
2018-02-02T13:50:48.588Z,76.32
2018-02-02T13:53:16.864Z,75.91
2018-02-02T13:55:45.503Z,76.14
2018-02-02T13:58:14.796Z,75.82
2018-02-02T14:00:43.256Z,75.77
2018-02-02T14:03:11.522Z,76.12
2018-02-02T14:05:39.809Z,76.33
2018-02-02T14:08:08.075Z,76.63
2018-02-02T14:10:36.345Z,76.99
2018-02-02T14:13:04.936Z,76.85
2018-02-02T14:15:33.684Z,76.98
2018-02-02T14:18:02.179Z,76.72
2018-02-02T14:20:30.452Z,76.70
2018-02-02T14:22:58.864Z,76.85
2018-02-02T14:25:31.083Z,76.40
2018-02-02T14:27:59.340Z,76.55
2018-02-02T14:30:27.921Z,76.99
2018-02-02T14:32:56.301Z,76.22
2018-02-02T14:35:24.571Z,75.79
2018-02-02T14:37:52.829Z,76.28
2018-02-02T14:40:21.117Z,76.50
2018-02-02T14:42:49.399Z,76.68
2018-02-02T14:45:17.680Z,76.30
2018-02-02T14:47:46.116Z,76.15
2018-02-02T14:50:14.390Z,76.79
2018-02-02T14:52:43.240Z,76.42
2018-02-02T14:55:11.510Z,76.70
2018-02-02T14:57:40.632Z,75.90
2018-02-02T15:00:08.912Z,75.40
2018-02-02T15:02:37.185Z,76.05
2018-02-02T15:05:06.141Z,76.58
2018-02-02T15:07:34.410Z,77.19
2018-02-02T15:10:02.688Z,76.67
2018-02-02T15:12:30.971Z,76.59
2018-02-02T15:15:02.456Z,76.65
2018-02-02T15:17:30.822Z,77.28
2018-02-02T15:20:02.390Z,77.26
2018-02-02T15:22:32.080Z,77.46
2018-02-02T15:25:03.938Z,77.84
2018-02-02T15:27:32.212Z,80.26
2018-02-02T15:30:04.134Z,76.87
2018-02-02T15:32:32.551Z,78.31
2018-02-02T15:35:03.567Z,77.96
2018-02-02T15:37:32.096Z,78.19
2018-02-02T15:40:02.055Z,77.63
2018-02-02T15:42:30.329Z,79.12
2018-02-02T15:45:03.173Z,79.02
2018-02-02T15:47:31.831Z,79.28
2018-02-02T15:50:01.785Z,78.93
2018-02-02T15:52:30.335Z,78.57
2018-02-02T15:55:01.839Z,79.03
2018-02-02T15:57:30.181Z,79.32
2018-02-02T16:00:04.979Z,80.47
2018-02-02T16:02:33.869Z,77.36
2018-02-02T16:05:02.119Z,76.97
2018-02-02T16:07:30.408Z,76.50
2018-02-02T16:10:02.476Z,78.06
2018-02-02T16:12:30.760Z,79.75
2018-02-02T16:15:01.992Z,80.77
2018-02-02T16:17:31.409Z,80.50
2018-02-02T16:20:02.592Z,79.71
2018-02-02T16:22:30.865Z,81.21
2018-02-02T16:25:01.731Z,80.38
2018-02-02T16:27:30.164Z,81.43
2018-02-02T16:30:04.454Z,80.43
2018-02-02T16:32:32.769Z,81.00
2018-02-02T16:35:01.964Z,80.78
2018-02-02T16:37:30.248Z,81.07
2018-02-02T16:40:04.203Z,80.84
2018-02-02T16:42:32.505Z,80.95
2018-02-02T16:45:01.930Z,80.90
2018-02-02T16:47:30.248Z,80.28
2018-02-02T16:50:01.567Z,80.86
2018-02-02T16:52:29.853Z,81.84
2018-02-02T16:55:05.057Z,81.03
2018-02-02T16:57:33.322Z,80.78
2018-02-02T17:00:01.972Z,80.63
2018-02-02T17:02:30.303Z,80.58
2018-02-02T17:05:02.434Z,80.77
2018-02-02T17:07:31.232Z,80.46
2018-02-02T17:10:02.961Z,80.69
2018-02-02T17:12:31.258Z,81.36
2018-02-02T17:15:03.421Z,81.47
2018-02-02T17:17:31.696Z,80.97
2018-02-02T17:20:03.822Z,80.70
2018-02-02T17:22:32.123Z,81.93
2018-02-02T17:25:03.047Z,82.87
2018-02-02T17:27:31.357Z,83.13
2018-02-02T17:30:02.851Z,81.87
2018-02-02T17:32:31.149Z,81.46
2018-02-02T17:35:02.641Z,81.97
2018-02-02T17:37:31.737Z,83.01
2018-02-02T17:40:05.046Z,83.02
2018-02-02T17:42:33.324Z,83.05
2018-02-02T17:45:02.567Z,83.00
2018-02-02T17:47:31.481Z,83.34
2018-02-02T17:50:03.342Z,83.79
2018-02-02T17:52:31.702Z,83.94
2018-02-02T17:55:03.044Z,83.84
2018-02-02T17:57:31.350Z,84.40
2018-02-02T18:00:02.688Z,84.87
2018-02-02T18:05:37.081Z,85.28
2018-02-02T18:08:05.393Z,85.17
2018-02-02T18:10:33.696Z,84.87
2018-02-02T18:13:02.004Z,84.69
2018-02-02T18:15:30.343Z,84.90
2018-02-02T18:17:59.000Z,84.98
2018-02-02T18:20:27.301Z,84.89
2018-02-02T18:22:55.869Z,84.84
2018-02-02T18:25:24.185Z,84.61
2018-02-02T18:27:52.648Z,84.52
2018-02-02T18:30:20.953Z,84.95
2018-02-02T18:32:49.262Z,85.08
2018-02-02T18:35:18.381Z,85.25
2018-02-02T18:37:46.718Z,84.84
2018-02-02T18:40:15.748Z,85.01
2018-02-02T18:42:44.045Z,84.98
2018-02-02T18:45:12.368Z,84.59
2018-02-02T18:47:40.748Z,84.36
2018-02-02T18:50:09.036Z,85.23
2018-02-02T18:52:37.341Z,84.75
2018-02-02T18:55:05.649Z,85.93
2018-02-02T18:57:33.973Z,85.75
2018-02-02T19:00:02.277Z,84.99
2018-02-02T19:02:30.605Z,85.21
2018-02-02T19:05:02.668Z,84.88
2018-02-02T19:07:30.968Z,85.13
2018-02-02T19:10:02.218Z,84.89
2018-02-02T19:12:30.776Z,84.63
2018-02-02T19:15:02.836Z,84.54
2018-02-02T19:17:31.144Z,84.39
2018-02-02T19:20:02.712Z,84.10
2018-02-02T19:22:31.075Z,84.25
2018-02-02T19:25:02.629Z,83.91
2018-02-02T19:27:31.086Z,84.72
2018-02-02T19:30:02.651Z,84.64
2018-02-02T19:32:30.932Z,83.77
2018-02-02T19:35:02.764Z,83.93
2018-02-02T19:37:31.814Z,84.37
2018-02-02T19:40:03.591Z,84.62
2018-02-02T19:42:31.887Z,84.67
2018-02-02T19:45:03.475Z,84.76
2018-02-02T19:47:31.803Z,84.33
2018-02-02T19:50:03.453Z,84.11
2018-02-02T19:52:31.765Z,83.69
2018-02-02T19:55:03.624Z,83.90
2018-02-02T19:57:33.015Z,83.82
2018-02-02T20:00:03.209Z,83.94
2018-02-02T20:02:31.508Z,83.60
2018-02-02T20:05:02.858Z,83.78
2018-02-02T20:07:31.161Z,83.62
2018-02-02T20:10:01.958Z,83.56
2018-02-02T20:12:30.313Z,83.34
2018-02-02T20:15:01.998Z,83.69
2018-02-02T20:17:30.371Z,83.89
2018-02-02T20:20:05.553Z,83.75
2018-02-02T20:22:33.848Z,83.18
2018-02-02T20:25:02.166Z,83.40
2018-02-02T20:27:30.607Z,83.63
2018-02-02T20:30:02.530Z,83.08
2018-02-02T20:32:30.800Z,83.31
2018-02-02T20:35:03.069Z,83.08
2018-02-02T20:37:31.404Z,82.88
2018-02-02T20:40:03.582Z,83.16
2018-02-02T20:42:31.911Z,83.17
2018-02-02T20:45:03.950Z,83.38
2018-02-02T20:47:32.249Z,83.47
2018-02-02T20:50:02.402Z,83.48
2018-02-02T20:52:30.728Z,83.94
2018-02-02T20:55:04.684Z,83.62
2018-02-02T20:57:32.987Z,83.47
2018-02-02T21:00:02.410Z,83.85
2018-02-02T21:02:30.715Z,83.80
2018-02-02T21:05:02.835Z,83.52
2018-02-02T21:07:31.152Z,83.77
2018-02-02T21:10:02.890Z,84.63
2018-02-02T21:12:31.192Z,84.79
2018-02-02T21:15:02.917Z,84.28
2018-02-02T21:17:31.240Z,83.55
2018-02-02T21:20:02.092Z,83.31
2018-02-02T21:22:30.372Z,83.41
2018-02-02T21:25:06.137Z,83.67
2018-02-02T21:27:34.438Z,83.06
2018-02-02T21:30:02.720Z,83.03
2018-02-02T21:32:31.049Z,83.36
2018-02-02T21:35:03.254Z,83.40
2018-02-02T21:37:31.580Z,83.17
2018-02-02T21:40:02.792Z,83.04
2018-02-02T21:42:31.111Z,82.86
2018-02-02T21:45:03.137Z,82.82
2018-02-02T21:47:31.426Z,82.49
2018-02-02T21:50:02.113Z,82.77
2018-02-02T21:52:30.613Z,82.89
2018-02-02T21:55:02.265Z,83.42
2018-02-02T21:57:30.574Z,83.07
2018-02-02T22:00:02.173Z,82.80
2018-02-02T22:02:30.476Z,82.58
2018-02-02T22:05:05.546Z,82.51
2018-02-02T22:07:33.862Z,82.81
2018-02-02T22:10:02.152Z,82.99
2018-02-02T22:12:30.468Z,83.01
2018-02-02T22:15:02.268Z,82.73
2018-02-02T22:17:30.611Z,83.04
2018-02-02T22:20:03.544Z,82.74
2018-02-02T22:22:32.173Z,82.99
2018-02-02T22:25:02.142Z,83.11
2018-02-02T22:27:30.728Z,83.17
2018-02-02T22:30:02.426Z,83.17
2018-02-02T22:32:30.869Z,83.24
2018-02-02T22:35:02.202Z,83.11
2018-02-02T22:37:30.562Z,83.13
2018-02-02T22:40:01.940Z,83.02
2018-02-02T22:42:30.563Z,82.93
2018-02-02T22:45:05.494Z,82.98
2018-02-02T22:47:33.818Z,82.92
2018-02-02T22:50:02.125Z,83.04
2018-02-02T22:52:30.454Z,82.99
2018-02-02T22:55:02.326Z,83.24
2018-02-02T22:57:30.673Z,83.12
2018-02-02T23:00:05.760Z,83.16
2018-02-02T23:02:34.048Z,83.28
2018-02-02T23:05:03.085Z,83.07
2018-02-02T23:07:31.517Z,83.07
2018-02-02T23:10:02.128Z,83.39
2018-02-02T23:12:30.454Z,83.91
2018-02-02T23:15:02.145Z,83.56
2018-02-02T23:17:30.456Z,84.04
2018-02-02T23:20:01.953Z,83.94
2018-02-02T23:22:30.650Z,83.48
2018-02-02T23:25:05.656Z,83.77
2018-02-02T23:27:33.976Z,84.11
2018-02-02T23:30:02.275Z,84.20
2018-02-02T23:32:30.588Z,84.11
2018-02-02T23:35:05.666Z,84.42
2018-02-02T23:37:34.030Z,84.73
2018-02-02T23:40:02.340Z,85.21
2018-02-02T23:42:30.653Z,85.40
2018-02-02T23:45:02.012Z,85.63
2018-02-02T23:47:30.313Z,86.02
2018-02-02T23:50:01.585Z,85.96
2018-02-02T23:52:29.893Z,85.89
2018-02-02T23:55:03.842Z,85.49
2018-02-02T23:57:32.161Z,85.59
